Time;durP1;ratioP1;P1;durP2;ratioP2;P2;SDS_P1;SDS_P2;PMS_P1;PMS_P2;Temp;Humidity;BMP_temperature;BMP_pressure;BME280_temperature;BME280_humidity;BME280_pressure;Samples;Min_cycle;Max_cycle;Signal;HPM_P1;HPM_P2
2021/03/02 00:01:54;;;;;;;22.75;10.90;;;;;;;-0.61;99.30;102559.00;5113645;28;20030;-76
2021/03/02 00:04:19;;;;;;;27.67;12.48;;;;;;;-0.74;100.00;102559.91;5113690;28;20036;-76
2021/03/02 00:06:45;;;;;;;25.08;12.32;;;;;;;-0.83;100.00;102560.25;5095122;28;20488;-76
2021/03/02 00:09:11;;;;;;;29.00;11.15;;;;;;;-0.79;100.00;102553.66;5113331;28;20070;-77
2021/03/02 00:11:37;;;;;;;24.95;11.65;;;;;;;-0.76;100.00;102554.72;5094926;28;20035;-76
2021/03/02 00:14:02;;;;;;;22.00;11.18;;;;;;;-0.59;100.00;102560.81;5096331;28;20493;-76
2021/03/02 00:16:30;;;;;;;26.48;11.45;;;;;;;-0.64;100.00;102556.25;5098949;28;20028;-76
2021/03/02 00:19:00;;;;;;;27.05;13.18;;;;;;;-0.67;100.00;102553.53;5098853;28;20019;-76
2021/03/02 00:21:40;;;;;;;23.63;12.40;;;;;;;-0.81;100.00;102551.00;5099035;28;20024;-76
2021/03/02 00:24:10;;;;;;;22.77;12.07;;;;;;;-0.80;100.00;102557.88;5098883;28;20080;-76
2021/03/02 00:26:40;;;;;;;23.92;11.93;;;;;;;-0.69;100.00;102555.97;5117060;28;20054;-77
2021/03/02 00:29:06;;;;;;;27.90;13.07;;;;;;;-0.69;100.00;102553.41;5117135;28;20099;-76
2021/03/02 00:31:33;;;;;;;23.90;12.00;;;;;;;-0.76;100.00;102556.41;5117015;28;20513;-77
2021/03/02 00:33:59;;;;;;;31.90;12.63;;;;;;;-0.88;100.00;102548.03;5099114;28;20111;-76
2021/03/02 00:36:24;;;;;;;33.75;14.75;;;;;;;-0.84;100.00;102549.94;5098690;28;20462;-76
2021/03/02 00:38:49;;;;;;;23.92;11.93;;;;;;;-0.89;100.00;102549.69;5116888;28;20019;-76
2021/03/02 00:41:15;;;;;;;23.88;11.25;;;;;;;-0.91;100.00;102546.16;5098562;28;20030;-77
2021/03/02 00:43:40;;;;;;;24.70;11.70;;;;;;;-0.88;100.00;102545.47;5098433;28;20513;-76
2021/03/02 00:46:06;;;;;;;34.53;12.27;;;;;;;-0.85;100.00;102546.53;5098454;28;20024;-76
2021/03/02 00:48:31;;;;;;;26.90;12.05;;;;;;;-0.89;100.00;102544.59;5116750;28;20026;-77
2021/03/02 00:50:56;;;;;;;23.75;11.85;;;;;;;-0.90;100.00;102547.91;5098377;28;20023;-75
2021/03/02 00:53:22;;;;;;;27.00;12.70;;;;;;;-0.93;100.00;102543.50;5116647;28;20028;-75
2021/03/02 00:55:47;;;;;;;31.52;12.70;;;;;;;-0.90;100.00;102539.41;5116586;28;20429;-75
2021/03/02 00:58:12;;;;;;;24.70;11.90;;;;;;;-0.98;100.00;102533.84;5116478;28;20080;-75
2021/03/02 01:00:37;;;;;;;27.45;11.68;;;;;;;-0.89;100.00;102538.59;5098341;28;20027;-77
2021/03/02 01:03:03;;;;;;;28.58;13.13;;;;;;;-0.66;100.00;102540.00;5098181;28;20024;-75
2021/03/02 01:05:28;;;;;;;30.23;12.77;;;;;;;-0.89;100.00;102536.03;5097998;28;20024;-77
2021/03/02 01:07:53;;;;;;;33.03;13.70;;;;;;;-0.87;100.00;102526.84;5116628;28;20069;-77
2021/03/02 01:10:19;;;;;;;33.28;12.85;;;;;;;-0.88;100.00;102528.50;5098035;28;20020;-76
2021/03/02 01:12:45;;;;;;;25.40;11.57;;;;;;;-0.99;100.00;102530.41;5098062;28;20399;-76
2021/03/02 01:15:10;;;;;;;28.52;13.50;;;;;;;-1.05;100.00;102522.38;5116237;28;20066;-75
2021/03/02 01:17:36;;;;;;;96.07;14.77;;;;;;;-1.08;100.00;102534.94;5097859;28;20016;-75
2021/03/02 01:20:04;;;;;;;194.68;17.80;;;;;;;-1.07;100.00;102534.16;5116168;28;20049;-76
2021/03/02 01:22:29;;;;;;;237.43;20.80;;;;;;;-1.13;100.00;102527.81;5115984;28;20508;-76
2021/03/02 01:24:54;;;;;;;36.67;13.80;;;;;;;-1.15;100.00;102525.16;5097701;28;20096;-76
2021/03/02 01:27:19;;;;;;;91.30;16.67;;;;;;;-1.07;100.00;102533.28;5100585;28;20034;-75
2021/03/02 01:29:45;;;;;;;266.42;18.20;;;;;;;-0.99;100.00;102526.97;5102749;28;20034;-76
2021/03/02 01:32:10;;;;;;;180.98;16.52;;;;;;;-0.96;100.00;102532.25;5117767;28;20118;-76
2021/03/02 01:34:35;;;;;;;138.55;15.48;;;;;;;-1.05;100.00;102519.84;5097722;28;20015;-76
2021/03/02 01:37:01;;;;;;;144.43;16.52;;;;;;;-1.12;100.00;102524.47;5097567;28;20023;-76
2021/03/02 01:39:27;;;;;;;204.98;17.75;;;;;;;-1.12;100.00;102525.34;5097563;28;20491;-76
2021/03/02 01:41:54;;;;;;;242.02;17.42;;;;;;;-1.04;100.00;102513.97;5097568;28;20122;-76
2021/03/02 01:44:20;;;;;;;103.15;13.07;;;;;;;-1.13;100.00;102508.34;5097317;28;20030;-77
2021/03/02 01:46:46;;;;;;;158.23;16.45;;;;;;;-1.21;100.00;102512.94;5115662;28;20483;-77
2021/03/02 01:49:12;;;;;;;40.47;13.30;;;;;;;-1.26;100.00;102513.44;5097290;28;20111;-76
2021/03/02 01:51:38;;;;;;;67.53;13.35;;;;;;;-1.32;100.00;102508.88;5097624;28;20378;-76
2021/03/02 01:54:03;;;;;;;98.88;16.33;;;;;;;-1.41;100.00;102505.78;5097215;28;20451;-76
2021/03/02 01:56:28;;;;;;;42.55;12.23;;;;;;;-1.51;100.00;102505.97;5115458;28;20031;-76
2021/03/02 01:58:54;;;;;;;104.10;14.32;;;;;;;-1.57;100.00;102508.13;5097062;28;20480;-76
2021/03/02 02:01:19;;;;;;;127.97;14.10;;;;;;;-1.72;100.00;102510.63;5097091;28;20364;-76
2021/03/02 02:04:04;;;;;;;166.23;17.38;;;;;;;-1.73;100.00;102512.25;5096973;28;20083;-76
2021/03/02 02:06:35;;;;;;;118.70;13.13;;;;;;;-1.80;100.00;102511.78;5115240;28;20072;-77
2021/03/02 02:09:15;;;;;;;87.20;12.02;;;;;;;-1.93;100.00;102512.66;5097048;28;20119;-77
2021/03/02 02:11:45;;;;;;;24.20;10.02;;;;;;;-2.03;100.00;102512.84;5096961;28;20119;-76
2021/03/02 02:14:49;;;;;;;21.02;10.48;;;;;;;-2.12;100.00;102508.94;5115011;28;20031;-76
2021/03/02 02:17:41;;;;;;;19.73;9.93;;;;;;;-2.15;100.00;102512.94;5096729;28;20016;-76
2021/03/02 02:20:10;;;;;;;19.42;9.70;;;;;;;-2.21;100.00;102521.06;5097096;28;20031;-76
2021/03/02 02:23:12;;;;;;;17.55;9.27;;;;;;;-2.26;100.00;102511.38;5114852;28;20028;-76
2021/03/02 02:25:43;;;;;;;18.08;10.10;;;;;;;-2.31;100.00;102513.59;5114851;28;20020;-76
2021/03/02 02:28:11;;;;;;;17.40;8.88;;;;;;;-2.20;100.00;102521.94;5114901;28;20490;-76
2021/03/02 02:30:39;;;;;;;17.15;8.98;;;;;;;-2.26;100.00;102519.84;5115143;28;20032;-76
2021/03/02 02:33:08;;;;;;;18.15;9.10;;;;;;;-2.20;100.00;102516.84;5096523;28;20096;-76
2021/03/02 02:35:34;;;;;;;15.60;8.40;;;;;;;-2.21;100.00;102518.50;5114634;28;20028;-76
2021/03/02 02:38:01;;;;;;;15.45;8.27;;;;;;;-2.26;100.00;102509.69;5095711;28;20019;-76
2021/03/02 02:40:27;;;;;;;16.30;8.95;;;;;;;-2.20;100.00;102515.19;5096421;28;20077;-76
2021/03/02 02:42:54;;;;;;;14.90;8.50;;;;;;;-2.25;100.00;102514.00;5114813;28;20115;-76
2021/03/02 02:45:20;;;;;;;22.40;9.98;;;;;;;-2.20;100.00;102514.31;5114446;28;20055;-76
2021/03/02 02:47:50;;;;;;;17.65;8.95;;;;;;;-2.28;100.00;102513.78;5114567;28;20016;-76
2021/03/02 02:50:17;;;;;;;20.10;9.23;;;;;;;-2.32;100.00;102506.75;5096342;28;20024;-76
2021/03/02 02:52:43;;;;;;;19.90;9.98;;;;;;;-2.25;100.00;102508.03;5096051;28;20019;-76
2021/03/02 02:55:10;;;;;;;17.77;8.90;;;;;;;-2.26;100.00;102508.81;5095946;28;20024;-76
2021/03/02 02:57:41;;;;;;;21.25;10.07;;;;;;;-2.25;100.00;102511.44;5096045;28;20047;-76
2021/03/02 03:00:07;;;;;;;23.23;9.57;;;;;;;-2.33;100.00;102510.97;5114340;28;20027;-76
2021/03/02 03:02:36;;;;;;;17.92;8.82;;;;;;;-2.33;100.00;102507.53;5114170;28;20031;-76
2021/03/02 03:05:22;;;;;;;23.55;9.77;;;;;;;-2.35;100.00;102511.63;5095880;28;20027;-77
2021/03/02 03:07:53;;;;;;;44.53;11.63;;;;;;;-2.35;100.00;102509.97;5095703;28;20020;-77
2021/03/02 03:10:20;;;;;;;35.47;12.20;;;;;;;-2.34;100.00;102503.22;5114020;28;20034;-76
2021/03/02 03:12:48;;;;;;;34.30;11.73;;;;;;;-2.28;100.00;102508.69;5095779;28;20031;-76
2021/03/02 03:15:17;;;;;;;35.50;12.57;;;;;;;-2.27;100.00;102502.00;5096012;28;20544;-76
2021/03/02 03:17:49;;;;;;;33.80;12.55;;;;;;;-2.25;100.00;102514.00;5095723;28;20024;-76
2021/03/02 03:20:15;;;;;;;27.77;10.95;;;;;;;-2.41;100.00;102511.22;5095796;28;20028;-76
2021/03/02 03:22:42;;;;;;;27.23;11.32;;;;;;;-2.37;100.00;102506.47;5095633;28;20118;-76
2021/03/02 03:25:10;;;;;;;30.50;11.27;;;;;;;-2.32;100.00;102510.16;5095592;28;20106;-76
2021/03/02 03:27:40;;;;;;;27.50;10.52;;;;;;;-2.35;100.00;102509.97;5095580;28;20032;-76
2021/03/02 03:30:06;;;;;;;25.25;10.10;;;;;;;-2.37;100.00;102508.09;5113864;28;20055;-76
2021/03/02 03:32:33;;;;;;;25.42;9.70;;;;;;;-2.37;100.00;102508.09;5095444;28;20034;-76
2021/03/02 03:35:01;;;;;;;22.75;11.65;;;;;;;-2.42;100.00;102505.28;5095440;28;20044;-76
2021/03/02 03:37:26;;;;;;;22.20;10.23;;;;;;;-2.40;100.00;102505.34;5095500;28;20019;-76
2021/03/02 03:39:52;;;;;;;23.85;9.30;;;;;;;-2.46;100.00;102512.56;5095617;28;20092;-76
2021/03/02 03:42:17;;;;;;;19.50;9.63;;;;;;;-2.42;100.00;102504.41;5113953;28;20164;-76
2021/03/02 03:44:42;;;;;;;20.85;9.15;;;;;;;-2.41;100.00;102506.16;5095357;28;20443;-76
2021/03/02 03:47:08;;;;;;;22.45;10.70;;;;;;;-2.40;100.00;102501.19;5095377;28;20024;-76
2021/03/02 03:49:33;;;;;;;22.90;9.75;;;;;;;-2.44;100.00;102496.66;5097925;28;20027;-76
2021/03/02 03:52:04;;;;;;;22.23;10.55;;;;;;;-2.43;100.00;102503.53;5099629;28;20475;-76
2021/03/02 03:54:31;;;;;;;20.92;9.88;;;;;;;-2.44;100.00;102496.66;5099621;28;20031;-76
2021/03/02 03:56:56;;;;;;;22.02;10.35;;;;;;;-2.45;100.00;102506.75;5099860;28;20019;-76
2021/03/02 03:59:24;;;;;;;20.92;9.27;;;;;;;-2.43;100.00;102502.63;5118200;28;20028;-76
2021/03/02 04:01:51;;;;;;;18.50;9.20;;;;;;;-2.41;100.00;102508.69;5124229;28;20107;-76
2021/03/02 04:04:19;;;;;;;27.65;11.18;;;;;;;-2.38;100.00;102511.44;5102470;28;20085;-76
2021/03/02 04:06:44;;;;;;;26.80;11.82;;;;;;;-2.43;100.00;102511.16;5099590;28;20038;-76
2021/03/02 04:09:10;;;;;;;26.38;12.63;;;;;;;-2.42;100.00;102505.28;5117724;28;20106;-76
2021/03/02 04:11:35;;;;;;;31.13;12.65;;;;;;;-2.40;100.00;102512.97;5117580;28;20027;-76
2021/03/02 04:14:01;;;;;;;32.95;11.73;;;;;;;-2.42;100.00;102505.28;5117367;28;20027;-76
2021/03/02 04:16:26;;;;;;;33.15;13.77;;;;;;;-2.45;100.00;102499.13;5099220;28;20024;-76
2021/03/02 04:18:51;;;;;;;40.85;15.35;;;;;;;-2.41;100.00;102495.97;5099264;28;20023;-76
2021/03/02 04:21:17;;;;;;;34.35;13.55;;;;;;;-2.44;100.00;102495.78;5099051;28;20031;-76
2021/03/02 04:23:43;;;;;;;40.17;15.55;;;;;;;-2.27;100.00;102494.38;5117319;28;20047;-76
2021/03/02 04:26:08;;;;;;;42.28;14.90;;;;;;;-2.30;100.00;102497.56;5098936;28;20024;-76
2021/03/02 04:28:33;;;;;;;36.85;14.65;;;;;;;-2.36;100.00;102502.25;5098963;28;20020;-76
2021/03/02 04:30:58;;;;;;;44.15;17.88;;;;;;;-2.19;100.00;102498.25;5098872;28;20027;-76
2021/03/02 04:33:24;;;;;;;45.80;16.73;;;;;;;-2.18;100.00;102494.97;5098646;28;20023;-76
2021/03/02 04:35:49;;;;;;;46.17;16.23;;;;;;;-2.21;100.00;102490.56;5117024;28;20433;-76
2021/03/02 04:38:14;;;;;;;39.92;16.55;;;;;;;-2.01;100.00;102491.81;5098634;28;20034;-76
2021/03/02 04:40:39;;;;;;;47.25;16.77;;;;;;;-2.01;100.00;102490.94;5098664;28;20028;-76
2021/03/02 04:43:05;;;;;;;48.17;17.02;;;;;;;-2.03;100.00;102489.94;5116909;28;20391;-76
2021/03/02 04:45:30;;;;;;;50.78;17.35;;;;;;;-1.97;100.00;102490.34;5116818;28;20154;-76
2021/03/02 04:47:56;;;;;;;48.45;17.25;;;;;;;-1.86;100.00;102491.91;5098392;28;20053;-76
2021/03/02 04:50:21;;;;;;;45.30;17.65;;;;;;;-1.78;100.00;102482.25;5098448;28;20034;-76
2021/03/02 04:52:46;;;;;;;52.17;18.50;;;;;;;-1.95;100.00;102488.78;5098499;28;20019;-76
2021/03/02 04:55:12;;;;;;;51.28;18.35;;;;;;;-1.93;100.00;102484.69;5098364;28;20024;-76
2021/03/02 04:57:38;;;;;;;47.38;18.63;;;;;;;-1.96;100.00;102481.97;5116459;28;20430;-76
2021/03/02 05:00:07;;;;;;;45.55;17.45;;;;;;;-1.90;100.00;102492.53;5116154;28;20032;-76
2021/03/02 05:02:32;;;;;;;42.10;17.83;;;;;;;-1.77;100.00;102484.00;5116514;28;20039;-76
2021/03/02 05:04:57;;;;;;;42.05;16.85;;;;;;;-1.78;100.00;102492.41;5098114;28;20023;-76
2021/03/02 05:07:23;;;;;;;40.83;16.60;;;;;;;-1.90;100.00;102493.41;5098245;28;20020;-76
2021/03/02 05:09:48;;;;;;;47.63;17.50;;;;;;;-2.03;100.00;102495.03;5098102;28;20467;-76
2021/03/02 05:12:13;;;;;;;47.92;17.85;;;;;;;-2.12;100.00;102483.53;5116432;28;20035;-76
2021/03/02 05:14:38;;;;;;;40.03;16.55;;;;;;;-2.14;100.00;102496.91;5116187;28;20050;-76
2021/03/02 05:17:04;;;;;;;48.83;17.05;;;;;;;-2.23;100.00;102488.69;5116153;28;20103;-76
2021/03/02 05:19:31;;;;;;;41.42;16.80;;;;;;;-2.24;100.00;102500.53;5097869;28;20031;-76
2021/03/02 05:21:56;;;;;;;37.90;16.35;;;;;;;-2.28;100.00;102495.13;5097735;28;20026;-75
2021/03/02 05:24:21;;;;;;;40.35;16.27;;;;;;;-2.40;100.00;102496.09;5097784;28;20024;-76
2021/03/02 05:26:46;;;;;;;36.28;15.57;;;;;;;-2.41;100.00;102495.97;5098149;28;20027;-76
2021/03/02 05:29:12;;;;;;;39.20;15.60;;;;;;;-2.38;100.00;102497.06;5097788;28;20110;-76
2021/03/02 05:31:37;;;;;;;46.50;16.95;;;;;;;-2.35;100.00;102491.31;5097844;28;20047;-76
2021/03/02 05:34:02;;;;;;;44.20;15.80;;;;;;;-2.29;100.00;102494.25;5115931;28;20020;-76
2021/03/02 05:36:28;;;;;;;32.63;15.40;;;;;;;-2.22;100.00;102498.06;5097717;28;20391;-76
2021/03/02 05:38:53;;;;;;;41.72;16.52;;;;;;;-1.99;100.00;102489.38;5097589;28;20016;-76
2021/03/02 05:41:18;;;;;;;37.10;16.92;;;;;;;-2.04;100.00;102488.22;5097562;28;20084;-76
2021/03/02 05:43:44;;;;;;;41.80;18.02;;;;;;;-2.06;100.00;102494.84;5115829;28;20028;-76
2021/03/02 05:46:10;;;;;;;40.88;17.23;;;;;;;-2.09;100.00;102495.56;5115644;28;20027;-76
2021/03/02 05:48:39;;;;;;;41.35;16.73;;;;;;;-2.10;100.00;102498.84;5097380;28;20016;-76
2021/03/02 05:51:05;;;;;;;46.92;17.35;;;;;;;-2.19;100.00;102504.22;5115520;28;20102;-76
2021/03/02 05:53:31;;;;;;;58.75;19.23;;;;;;;-2.16;100.00;102499.34;5115554;28;20032;-78
2021/03/02 05:55:56;;;;;;;49.03;18.58;;;;;;;-2.23;100.00;102501.41;5097657;28;20024;-78
2021/03/02 05:58:22;;;;;;;43.08;16.75;;;;;;;-2.20;100.00;102502.47;5097536;28;20135;-78
2021/03/02 06:00:47;;;;;;;41.22;17.48;;;;;;;-2.18;100.00;102498.38;5097409;28;20122;-78
2021/03/02 06:03:12;;;;;;;40.38;17.15;;;;;;;-1.99;100.00;102513.16;5097382;28;20036;-78
2021/03/02 06:05:38;;;;;;;43.47;16.90;;;;;;;-2.04;100.00;102511.09;5101448;22;20052;-85
2021/03/02 06:08:07;;;;;;;36.67;16.20;;;;;;;-2.06;100.00;102520.25;5075777;28;20028;-85
2021/03/02 06:10:33;;;;;;;46.08;16.35;;;;;;;-2.11;100.00;102510.69;5075707;28;20035;-84
2021/03/02 06:12:59;;;;;;;37.97;15.75;;;;;;;-2.20;100.00;102505.00;5076073;28;20027;-86
2021/03/02 06:15:26;;;;;;;40.47;15.63;;;;;;;-2.18;100.00;102503.47;5075870;28;20020;-85
2021/03/02 06:18:07;;;;;;;37.55;15.75;;;;;;;-2.15;100.00;102503.66;5075544;28;20020;-84
2021/03/02 06:20:32;;;;;;;33.65;15.65;;;;;;;-2.10;100.00;102509.91;5076628;28;20021;-85
2021/03/02 06:22:58;;;;;;;42.83;16.13;;;;;;;-2.08;100.00;102503.25;5075283;28;20515;-85
2021/03/02 06:25:28;;;;;;;34.58;15.98;;;;;;;-2.08;100.00;102505.81;5076620;28;20035;-85
2021/03/02 06:27:54;;;;;;;44.10;16.58;;;;;;;-2.02;100.00;102505.31;5075643;28;20116;-85
2021/03/02 06:30:20;;;;;;;45.40;16.60;;;;;;;-1.90;100.00;102503.56;5076701;28;20088;-85
2021/03/02 06:32:51;;;;;;;35.17;15.18;;;;;;;-1.90;100.00;102506.09;5075640;28;20086;-85
2021/03/02 06:35:44;;;;;;;42.85;16.25;;;;;;;-1.79;100.00;102511.88;5076027;28;20025;-85
2021/03/02 06:38:10;;;;;;;36.58;15.40;;;;;;;-1.71;100.00;102510.69;5075557;28;20028;-85
2021/03/02 06:40:43;;;;;;;36.35;17.25;;;;;;;-1.58;100.00;102506.38;5074340;28;20449;-85
2021/03/02 06:43:36;;;;;;;36.65;16.05;;;;;;;-1.54;100.00;102503.22;5075756;28;20099;-85
2021/03/02 06:46:04;;;;;;;34.25;16.70;;;;;;;-1.38;100.00;102505.09;5076298;28;20446;-85
2021/03/02 06:48:31;;;;;;;34.55;15.88;;;;;;;-1.14;100.00;102500.59;5077368;28;20020;-85
2021/03/02 06:50:57;;;;;;;38.17;17.30;;;;;;;-0.80;100.00;102503.47;5075939;28;20050;-84
2021/03/02 06:53:22;;;;;;;40.80;16.48;;;;;;;-0.63;99.22;102504.50;5076314;28;20027;-84
2021/03/02 06:55:47;;;;;;;42.88;17.13;;;;;;;-0.40;98.05;102498.16;5076888;28;20020;-84
2021/03/02 06:58:17;;;;;;;33.10;16.42;;;;;;;-0.20;97.42;102504.44;5076008;28;20075;-84
2021/03/02 07:01:01;;;;;;;32.25;15.60;;;;;;;-0.12;97.20;102505.75;5074707;28;20056;-86
2021/03/02 07:03:34;;;;;;;32.47;15.73;;;;;;;0.00;96.67;102501.34;5073720;28;20024;-85
2021/03/02 07:06:03;;;;;;;29.02;15.73;;;;;;;0.00;96.29;102509.00;5072786;28;20062;-85
2021/03/02 07:08:30;;;;;;;29.02;14.75;;;;;;;0.03;96.47;102498.94;5074054;28;20020;-85
2021/03/02 07:10:56;;;;;;;30.83;15.05;;;;;;;0.06;96.59;102504.22;5073199;28;20127;-85
2021/03/02 07:13:22;;;;;;;29.73;15.32;;;;;;;0.12;95.84;102501.13;5074999;28;20107;-85
2021/03/02 07:15:51;;;;;;;29.15;15.18;;;;;;;0.25;96.01;102500.13;5074524;28;20024;-85
2021/03/02 07:18:18;;;;;;;29.10;14.98;;;;;;;0.41;96.03;102501.06;5080241;28;20088;-84
2021/03/02 07:20:47;;;;;;;27.98;14.18;;;;;;;0.62;95.15;102497.94;5077298;28;20087;-85
2021/03/02 07:23:24;;;;;;;31.15;15.60;;;;;;;0.82;95.57;102497.28;5075650;28;20396;-84
2021/03/02 07:26:21;;;;;;;;;;;;;;;;;;;;;
2021/03/02 07:29:43;;;;;;;28.58;15.98;;;;;;;1.31;93.77;102504.06;5074588;28;20039;-85
2021/03/02 07:32:43;;;;;;;29.73;15.95;;;;;;;1.57;93.20;102502.81;5074507;28;20365;-85
2021/03/02 07:35:20;;;;;;;31.08;16.40;;;;;;;1.77;92.50;102516.59;5068593;28;20033;-85
2021/03/02 07:37:50;;;;;;;29.63;16.67;;;;;;;1.94;92.31;102510.63;5074015;28;20020;-85
2021/03/02 07:40:17;;;;;;;28.20;15.40;;;;;;;2.23;91.63;102506.03;5074076;28;20024;-84
2021/03/02 07:42:43;;;;;;;32.92;17.05;;;;;;;2.43;91.27;102512.06;5076776;28;20024;-85
2021/03/02 07:45:08;;;;;;;28.80;16.67;;;;;;;2.60;90.30;102503.47;5074681;28;20113;-84
2021/03/02 07:47:50;;;;;;;35.03;18.55;;;;;;;2.75;88.46;102506.75;5076579;28;20046;-84
2021/03/02 07:50:16;;;;;;;31.95;18.48;;;;;;;2.76;89.27;102505.91;5077611;28;20024;-84
2021/03/02 07:52:41;;;;;;;33.63;17.20;;;;;;;2.60;89.39;102511.16;5075683;28;20112;-84
2021/03/02 07:55:23;;;;;;;30.40;16.98;;;;;;;2.65;90.23;102506.22;5076889;28;20077;-84
2021/03/02 07:58:16;;;;;;;26.85;16.33;;;;;;;2.72;88.38;102506.59;5076458;28;20027;-84
2021/03/02 08:00:42;;;;;;;26.23;14.65;;;;;;;2.46;89.96;102512.19;5082273;28;20048;-83
2021/03/02 08:03:25;;;;;;;26.25;13.88;;;;;;;2.58;89.72;102511.91;5075351;28;20024;-84
2021/03/02 08:05:52;;;;;;;20.42;11.13;;;;;;;2.56;88.79;102519.53;5080160;28;20088;-82
2021/03/02 08:08:23;;;;;;;25.42;13.25;;;;;;;2.61;89.28;102523.16;5082995;28;20021;-83
2021/03/02 08:10:49;;;;;;;29.08;16.00;;;;;;;3.16;88.22;102528.19;5075715;28;20036;-83
2021/03/02 08:13:40;;;;;;;26.38;14.27;;;;;;;2.97;88.23;102526.50;5079294;28;20032;-83
2021/03/02 08:16:07;;;;;;;22.73;12.93;;;;;;;2.91;87.95;102530.50;5078405;28;20388;-83
2021/03/02 08:18:37;;;;;;;26.23;14.73;;;;;;;3.58;86.11;102522.28;5079754;28;20387;-83
2021/03/02 08:21:10;;;;;;;27.77;15.23;;;;;;;3.45;86.70;102523.47;5079437;28;20032;-82
2021/03/02 08:23:53;;;;;;;25.50;14.35;;;;;;;3.67;85.27;102525.25;5078496;28;20031;-83
2021/03/02 08:26:27;;;;;;;24.75;11.13;;;;;;;3.72;83.70;102533.13;5078255;28;20024;-83
2021/03/02 08:29:09;;;;;;;26.10;15.00;;;;;;;3.89;83.91;102525.31;5077469;28;20024;-83
2021/03/02 08:31:35;;;;;;;28.88;15.05;;;;;;;4.04;84.29;102526.75;5077332;28;20024;-83
2021/03/02 08:34:03;;;;;;;26.35;14.95;;;;;;;4.06;83.49;102525.97;5079146;28;20017;-83
2021/03/02 08:36:29;;;;;;;24.38;13.93;;;;;;;4.05;84.54;102528.50;5080896;28;20056;-83
2021/03/02 08:38:55;;;;;;;25.17;14.85;;;;;;;4.47;83.03;102521.59;5080880;28;20044;-83
2021/03/02 08:41:34;;;;;;;27.52;14.90;;;;;;;5.05;80.60;102520.34;5080742;28;20092;-83
2021/03/02 08:44:00;;;;;;;24.20;14.30;;;;;;;4.66;81.49;102523.19;5080736;28;20504;-84
2021/03/02 08:46:48;;;;;;;26.75;14.93;;;;;;;5.12;81.35;102522.28;5081498;28;20105;-83
2021/03/02 08:49:14;;;;;;;25.40;14.85;;;;;;;4.91;81.15;102531.81;5080473;28;20016;-83
2021/03/02 08:51:39;;;;;;;28.48;16.33;;;;;;;5.21;80.17;102529.47;5082334;28;20032;-83
2021/03/02 08:54:06;;;;;;;29.30;17.23;;;;;;;5.50;79.90;102528.78;5079032;28;20090;-83
2021/03/02 08:56:32;;;;;;;29.40;17.02;;;;;;;5.62;78.74;102527.44;5080863;28;20025;-83
2021/03/02 08:59:12;;;;;;;30.73;18.05;;;;;;;5.60;77.81;102532.53;5080501;28;20032;-83
2021/03/02 09:01:39;;;;;;;28.30;16.45;;;;;;;5.40;78.30;102526.72;5081403;28;20369;-84
2021/03/02 09:04:18;;;;;;;28.90;16.02;;;;;;;5.29;78.31;102525.44;5078774;28;20087;-83
2021/03/02 09:06:48;;;;;;;27.48;15.30;;;;;;;5.10;78.16;102533.34;5081356;28;20406;-83
2021/03/02 09:09:15;;;;;;;30.85;15.45;;;;;;;4.96;79.16;102530.28;5082522;28;20092;-83
2021/03/02 09:11:43;;;;;;;25.88;15.38;;;;;;;5.51;78.15;102532.22;5081657;28;20033;-83
2021/03/02 09:14:19;;;;;;;26.05;14.73;;;;;;;5.48;77.39;102526.97;5084923;28;20021;-84
2021/03/02 09:16:47;;;;;;;28.40;15.13;;;;;;;5.89;76.48;102530.06;5078781;28;20119;-84
2021/03/02 09:19:23;;;;;;;26.08;14.68;;;;;;;5.60;76.14;102527.38;5081561;28;20524;-83
2021/03/02 09:22:05;;;;;;;28.20;16.15;;;;;;;6.15;75.45;102523.19;5079089;28;20024;-83
2021/03/02 09:24:38;;;;;;;28.95;16.75;;;;;;;6.10;75.48;102527.34;5078639;28;20089;-83
2021/03/02 09:27:09;;;;;;;24.88;15.32;;;;;;;6.69;73.23;102518.84;5078158;28;20029;-83
2021/03/02 09:29:46;;;;;;;28.08;15.10;;;;;;;6.63;73.96;102529.00;5077986;28;20481;-83
2021/03/02 09:32:15;;;;;;;26.85;15.27;;;;;;;6.50;72.67;102521.72;5080352;28;20111;-83
2021/03/02 09:34:46;;;;;;;26.45;14.60;;;;;;;6.20;72.89;102526.81;5083217;28;20028;-83
2021/03/02 09:37:12;;;;;;;25.13;14.90;;;;;;;6.32;74.60;102532.34;5083530;28;20016;-83
2021/03/02 09:39:41;;;;;;;24.35;13.15;;;;;;;5.27;76.74;102527.13;5083286;28;20025;-83
2021/03/02 09:42:17;;;;;;;20.65;10.82;;;;;;;5.27;76.31;102530.56;5084597;28;20073;-83
2021/03/02 09:44:48;;;;;;;29.67;16.35;;;;;;;5.39;77.28;102524.97;5082356;28;20028;-83
2021/03/02 09:47:34;;;;;;;29.52;16.58;;;;;;;6.51;73.74;102533.78;5080958;28;20515;-81
2021/03/02 09:50:04;;;;;;;30.50;15.70;;;;;;;5.64;76.30;102529.25;5079017;28;20035;-81
2021/03/02 09:52:33;;;;;;;20.75;10.60;;;;;;;5.10;76.91;102518.78;5078960;28;20024;-81
2021/03/02 09:55:11;;;;;;;25.80;13.18;;;;;;;5.25;77.00;102521.91;5080900;28;20499;-81
2021/03/02 09:57:58;;;;;;;26.45;15.15;;;;;;;5.45;75.10;102521.72;5082688;28;20024;-82
2021/03/02 10:00:26;;;;;;;18.05;9.57;;;;;;;5.01;77.38;102523.59;5087145;28;20032;-82
2021/03/02 10:03:00;;;;;;;26.05;11.23;;;;;;;5.29;76.54;102523.75;5084138;28;20028;-82
2021/03/02 10:05:37;;;;;;;22.65;12.25;;;;;;;6.08;73.89;102519.56;5084382;28;20028;-82
2021/03/02 10:08:26;;;;;;;22.77;13.85;;;;;;;6.07;73.47;102520.41;5085423;28;20408;-82
2021/03/02 10:11:04;;;;;;;23.67;14.20;;;;;;;6.49;71.46;102519.97;5084579;28;20079;-82
2021/03/02 10:13:30;;;;;;;27.52;15.60;;;;;;;6.42;71.88;102518.03;5083808;28;20025;-82
2021/03/02 10:16:17;;;;;;;24.20;13.40;;;;;;;6.73;71.24;102514.66;5082058;28;20059;-82
2021/03/02 10:19:20;;;;;;;23.63;14.45;;;;;;;6.52;71.70;102512.31;5084111;28;20017;-82
2021/03/02 10:21:55;;;;;;;19.23;10.10;;;;;;;6.27;72.73;102521.00;5082192;28;20091;-82
2021/03/02 10:24:26;;;;;;;26.30;14.27;;;;;;;6.58;72.73;102514.22;5084269;28;20036;-82
2021/03/02 10:26:53;;;;;;;27.80;16.25;;;;;;;7.13;70.34;102521.81;5083570;28;20046;-82
2021/03/02 10:29:19;;;;;;;24.42;14.95;;;;;;;7.59;68.31;102512.72;5082238;28;20021;-82
2021/03/02 10:31:44;;;;;;;28.05;15.77;;;;;;;7.82;67.92;102513.31;5083314;28;20047;-82
2021/03/02 10:34:11;;;;;;;20.58;9.82;;;;;;;7.17;68.36;102512.44;5083692;28;20035;-82
2021/03/02 10:36:40;;;;;;;25.58;14.43;;;;;;;7.09;69.20;102517.41;5083619;28;20397;-82
2021/03/02 10:39:16;;;;;;;25.33;13.60;;;;;;;7.21;67.51;102516.00;5080338;28;20024;-81
2021/03/02 10:41:43;;;;;;;22.25;13.85;;;;;;;7.50;68.92;102514.19;5080415;28;20017;-81
2021/03/02 10:44:09;;;;;;;25.15;14.80;;;;;;;7.68;68.29;102521.53;5082514;28;20480;-82
2021/03/02 10:46:35;;;;;;;23.58;13.00;;;;;;;7.26;67.94;102528.19;5084532;28;20037;-83
2021/03/02 10:49:00;;;;;;;24.60;12.32;;;;;;;7.29;68.02;102522.22;5084157;28;20058;-82
2021/03/02 10:51:27;;;;;;;20.02;11.18;;;;;;;6.67;69.71;102519.63;5084369;28;20025;-82
2021/03/02 10:53:52;;;;;;;24.90;14.32;;;;;;;6.69;70.46;102518.84;5086898;28;20096;-82
2021/03/02 10:56:18;;;;;;;22.63;11.63;;;;;;;6.51;70.09;102522.59;5086225;28;20095;-82
2021/03/02 10:58:45;;;;;;;22.55;12.00;;;;;;;6.74;71.44;102520.69;5084686;28;20031;-83
2021/03/02 11:01:11;;;;;;;25.98;15.15;;;;;;;7.40;69.25;102513.06;5085735;28;20092;-83
2021/03/02 11:03:37;;;;;;;25.77;12.30;;;;;;;7.60;67.75;102511.00;5085115;28;20461;-82
2021/03/02 11:06:03;;;;;;;27.83;14.82;;;;;;;7.43;68.68;102517.44;5087196;28;20032;-82
2021/03/02 11:08:28;;;;;;;27.00;12.75;;;;;;;7.52;67.91;102521.16;5085442;28;20020;-83
2021/03/02 11:10:54;;;;;;;25.42;15.00;;;;;;;8.24;65.94;102514.28;5085529;28;20477;-83
2021/03/02 11:13:19;;;;;;;27.15;15.25;;;;;;;8.60;64.60;102506.50;5086741;28;20020;-83
2021/03/02 11:15:45;;;;;;;24.52;15.23;;;;;;;8.99;63.66;102503.84;5085054;28;20060;-83
2021/03/02 11:18:10;;;;;;;25.60;14.50;;;;;;;7.91;65.92;102504.88;5085433;28;20029;-82
2021/03/02 11:20:37;;;;;;;25.55;15.30;;;;;;;8.72;62.73;102505.88;5083990;28;20460;-83